createdAt,value
2022-09-10T00:00:50.397Z,0.00
2022-09-10T00:01:50.383Z,0.00
2022-09-10T00:02:50.304Z,0.00
2022-09-10T00:03:50.213Z,0.00
2022-09-10T00:04:52.548Z,0.00
2022-09-10T00:05:50.054Z,0.00
2022-09-10T00:06:50.018Z,0.00
2022-09-10T00:07:49.882Z,1.00
2022-09-10T00:08:49.861Z,0.00
2022-09-10T00:09:49.805Z,0.00
2022-09-10T00:10:49.742Z,0.00
2022-09-10T00:11:49.696Z,0.00
2022-09-10T00:12:49.581Z,0.00
2022-09-10T00:13:49.531Z,0.00
2022-09-10T00:14:49.462Z,0.00
2022-09-10T00:15:49.528Z,0.00
2022-09-10T00:16:50.124Z,0.00
2022-09-10T00:17:49.275Z,0.00
2022-09-10T00:18:49.230Z,0.00
2022-09-10T00:19:49.142Z,0.00
2022-09-10T00:20:49.084Z,0.00
2022-09-10T00:21:49.009Z,0.00
2022-09-10T00:22:48.952Z,0.00
2022-09-10T00:23:48.884Z,0.00
2022-09-10T00:24:48.821Z,0.00
2022-09-10T00:25:48.740Z,0.00
2022-09-10T00:26:48.690Z,0.00
2022-09-10T00:27:48.622Z,0.00
2022-09-10T00:28:48.598Z,0.00
2022-09-10T00:29:48.480Z,0.00
2022-09-10T00:30:48.430Z,0.00
2022-09-10T00:31:48.355Z,0.00
2022-09-10T00:32:48.284Z,0.00
2022-09-10T00:33:48.229Z,0.00
2022-09-10T00:34:49.382Z,0.00
2022-09-10T00:35:48.082Z,0.00
2022-09-10T00:36:48.041Z,0.00
2022-09-10T00:37:47.959Z,0.00
2022-09-10T00:38:47.888Z,0.00
2022-09-10T00:39:47.900Z,0.00
2022-09-10T00:40:47.772Z,0.00
2022-09-10T00:41:47.709Z,0.00
2022-09-10T00:42:47.629Z,0.00
2022-09-10T00:43:47.604Z,0.00
2022-09-10T00:44:47.510Z,0.00
2022-09-10T00:45:47.503Z,0.00
2022-09-10T00:46:48.613Z,0.00
2022-09-10T00:47:47.316Z,0.00
2022-09-10T00:48:47.240Z,0.00
2022-09-10T00:49:47.183Z,0.00
2022-09-10T00:50:47.119Z,0.00
2022-09-10T00:51:47.112Z,0.00
2022-09-10T00:52:47.009Z,0.00
2022-09-10T00:53:46.914Z,0.00
2022-09-10T00:54:46.861Z,0.00
2022-09-10T00:55:46.788Z,0.00
2022-09-10T00:56:46.720Z,0.00
2022-09-10T00:57:46.672Z,0.00
2022-09-10T00:58:46.605Z,0.00
2022-09-10T00:59:46.545Z,0.00
2022-09-10T01:00:46.520Z,0.00
2022-09-10T01:01:46.459Z,0.00
2022-09-10T01:02:46.359Z,0.00
2022-09-10T01:03:46.293Z,0.00
2022-09-10T01:04:46.210Z,0.00
2022-09-10T01:05:46.147Z,0.00
2022-09-10T01:06:46.079Z,0.00
2022-09-10T01:07:46.001Z,0.00
2022-09-10T01:08:45.933Z,0.00
2022-09-10T01:09:45.887Z,0.00
2022-09-10T01:10:48.120Z,0.00
2022-09-10T01:11:45.774Z,0.00
2022-09-10T01:12:45.684Z,0.00
2022-09-10T01:13:45.630Z,0.00
2022-09-10T01:14:45.546Z,0.00
2022-09-10T01:15:45.511Z,0.00
2022-09-10T01:16:45.422Z,0.00
2022-09-10T01:17:45.385Z,0.00
2022-09-10T01:18:45.297Z,0.00
2022-09-10T01:19:45.241Z,0.00
2022-09-10T01:20:45.164Z,0.00
2022-09-10T01:21:45.126Z,0.00
2022-09-10T01:22:45.035Z,0.00
2022-09-10T01:23:44.983Z,0.00
2022-09-10T01:24:44.895Z,0.00
2022-09-10T01:25:44.829Z,0.00
2022-09-10T01:26:44.792Z,0.00
2022-09-10T01:27:44.737Z,0.00
2022-09-10T01:28:45.414Z,0.00
2022-09-10T01:29:44.580Z,0.00
2022-09-10T01:30:44.543Z,0.00
2022-09-10T01:31:44.500Z,0.00
2022-09-10T01:32:44.385Z,0.00
2022-09-10T01:33:44.321Z,0.00
2022-09-10T01:34:44.269Z,0.00
2022-09-10T01:35:44.169Z,0.00
2022-09-10T01:36:44.142Z,0.00
2022-09-10T01:37:44.041Z,0.00
2022-09-10T01:38:43.990Z,0.00
2022-09-10T01:39:43.970Z,0.00
2022-09-10T01:40:43.884Z,0.00
2022-09-10T01:41:43.780Z,0.00
2022-09-10T01:42:43.718Z,0.00
2022-09-10T01:43:43.663Z,0.00
2022-09-10T01:44:43.600Z,0.00
2022-09-10T01:45:43.570Z,0.00
2022-09-10T01:46:43.487Z,0.00
2022-09-10T01:47:43.390Z,0.00
2022-09-10T01:48:43.343Z,0.00
2022-09-10T01:49:43.272Z,0.00
2022-09-10T01:50:43.191Z,0.00
2022-09-10T01:51:43.133Z,0.00
2022-09-10T01:52:44.596Z,0.00
2022-09-10T01:53:43.012Z,0.00
2022-09-10T01:54:42.939Z,0.00
2022-09-10T01:55:42.884Z,0.00
2022-09-10T01:56:42.816Z,0.00
2022-09-10T01:57:42.745Z,0.00
2022-09-10T01:58:42.706Z,0.00
2022-09-10T01:59:42.631Z,0.00
2022-09-10T02:00:42.573Z,0.00
2022-09-10T02:01:42.553Z,0.00
2022-09-10T02:02:42.422Z,0.00
2022-09-10T02:03:42.364Z,0.00
2022-09-10T02:04:43.068Z,0.00
2022-09-10T02:05:42.215Z,0.00
2022-09-10T02:06:42.160Z,0.00
2022-09-10T02:07:42.083Z,0.00
2022-09-10T02:08:42.023Z,0.00
2022-09-10T02:09:41.969Z,0.00
2022-09-10T02:10:44.194Z,0.00
2022-09-10T02:11:41.824Z,0.00
2022-09-10T02:12:41.775Z,0.00
2022-09-10T02:13:41.718Z,0.00
2022-09-10T02:14:41.641Z,0.00
2022-09-10T02:15:41.574Z,0.00
2022-09-10T02:16:41.557Z,0.00
2022-09-10T02:17:41.444Z,0.00
2022-09-10T02:18:41.371Z,0.00
2022-09-10T02:19:41.315Z,0.00
2022-09-10T02:20:41.236Z,0.00
2022-09-10T02:21:41.211Z,0.00
2022-09-10T02:22:41.128Z,0.00
2022-09-10T02:23:41.024Z,1.00
2022-09-10T02:24:40.946Z,1.00
2022-09-10T02:25:40.857Z,1.00
2022-09-10T02:26:40.865Z,0.00
2022-09-10T02:27:40.791Z,0.00
2022-09-10T02:28:40.759Z,0.00
2022-09-10T02:29:40.652Z,0.00
2022-09-10T02:30:40.590Z,0.00
2022-09-10T02:31:40.551Z,0.00
2022-09-10T02:32:40.456Z,0.00
2022-09-10T02:33:40.397Z,0.00
2022-09-10T02:34:43.378Z,0.00
2022-09-10T02:35:40.301Z,0.00
2022-09-10T02:36:40.200Z,0.00
2022-09-10T02:37:40.170Z,0.00
2022-09-10T02:38:40.212Z,0.00
2022-09-10T02:39:40.115Z,0.00
2022-09-10T02:40:39.954Z,0.00
2022-09-10T02:41:39.878Z,0.00
2022-09-10T02:42:39.805Z,0.00
2022-09-10T02:43:39.741Z,0.00
2022-09-10T02:44:39.681Z,0.00
2022-09-10T02:45:39.646Z,0.00
2022-09-10T02:46:39.895Z,0.00
2022-09-10T02:47:39.492Z,0.00
2022-09-10T02:48:39.609Z,0.00
2022-09-10T02:49:39.360Z,0.00
2022-09-10T02:50:39.301Z,0.00
2022-09-10T02:51:39.240Z,0.00
2022-09-10T02:52:39.981Z,0.00
2022-09-10T02:53:39.099Z,0.00
2022-09-10T02:54:38.993Z,1.00
2022-09-10T02:55:38.987Z,0.00
2022-09-10T02:56:38.891Z,0.00
2022-09-10T02:57:38.827Z,0.00
2022-09-10T02:58:38.861Z,0.00
2022-09-10T02:59:38.706Z,0.00
2022-09-10T03:00:38.653Z,0.00
2022-09-10T03:01:38.609Z,0.00
2022-09-10T03:02:38.518Z,0.00
2022-09-10T03:03:38.444Z,0.00
2022-09-10T03:04:39.158Z,0.00
2022-09-10T03:05:38.323Z,0.00
2022-09-10T03:06:38.250Z,0.00
2022-09-10T03:07:38.203Z,0.00
2022-09-10T03:08:38.187Z,0.00
2022-09-10T03:09:38.050Z,0.00
2022-09-10T03:10:38.009Z,0.00
2022-09-10T03:11:37.928Z,0.00
2022-09-10T03:12:37.912Z,0.00
2022-09-10T03:13:37.823Z,0.00
2022-09-10T03:14:37.711Z,0.00
2022-09-10T03:15:37.678Z,0.00
2022-09-10T03:16:37.645Z,0.00
2022-09-10T03:17:37.578Z,0.00
2022-09-10T03:18:37.486Z,0.00
2022-09-10T03:19:37.455Z,0.00
2022-09-10T03:20:37.319Z,0.00
2022-09-10T03:21:37.254Z,0.00
2022-09-10T03:22:37.250Z,0.00
2022-09-10T03:23:37.517Z,0.00
2022-09-10T03:24:37.082Z,0.00
2022-09-10T03:25:37.023Z,0.00
2022-09-10T03:26:36.966Z,0.00
2022-09-10T03:27:36.898Z,0.00
2022-09-10T03:28:36.811Z,0.00
2022-09-10T03:29:36.753Z,0.00
2022-09-10T03:30:36.706Z,0.00
2022-09-10T03:31:36.672Z,0.00
2022-09-10T03:32:36.576Z,0.00
2022-09-10T03:33:36.526Z,0.00
2022-09-10T03:34:36.423Z,0.00
2022-09-10T03:35:36.362Z,0.00
2022-09-10T03:36:36.315Z,0.00
2022-09-10T03:37:36.233Z,0.00
2022-09-10T03:38:36.162Z,0.00
2022-09-10T03:39:36.137Z,0.00
2022-09-10T03:40:36.095Z,0.00
2022-09-10T03:41:35.947Z,0.00
2022-09-10T03:42:35.926Z,0.00
2022-09-10T03:43:35.868Z,0.00
2022-09-10T03:44:35.769Z,0.00
2022-09-10T03:45:35.749Z,0.00
2022-09-10T03:46:35.663Z,0.00
2022-09-10T03:47:35.578Z,0.00
2022-09-10T03:48:35.574Z,0.00
2022-09-10T03:49:35.431Z,0.00
2022-09-10T03:50:35.404Z,0.00
2022-09-10T03:51:35.302Z,0.00
2022-09-10T03:52:35.553Z,0.00
2022-09-10T03:53:35.168Z,0.00
2022-09-10T03:54:35.103Z,0.00
2022-09-10T03:55:35.054Z,0.00
2022-09-10T03:56:35.013Z,0.00
2022-09-10T03:57:34.927Z,0.00
2022-09-10T03:58:35.721Z,0.00
2022-09-10T03:59:34.792Z,0.00
2022-09-10T04:00:34.728Z,0.00
2022-09-10T04:01:34.656Z,0.00
2022-09-10T04:02:34.596Z,0.00
2022-09-10T04:03:34.515Z,0.00
2022-09-10T04:04:34.471Z,0.00
2022-09-10T04:05:34.382Z,0.00
2022-09-10T04:06:34.347Z,0.00
2022-09-10T04:07:34.278Z,0.00
2022-09-10T04:08:34.199Z,0.00
2022-09-10T04:09:34.144Z,0.00
2022-09-10T04:10:34.097Z,0.00
2022-09-10T04:11:34.012Z,0.00
2022-09-10T04:12:33.958Z,0.00
2022-09-10T04:13:33.869Z,0.00
2022-09-10T04:14:33.818Z,0.00
2022-09-10T04:15:33.736Z,0.00
2022-09-10T04:16:35.057Z,0.00
2022-09-10T04:17:33.631Z,0.00
2022-09-10T04:18:33.587Z,0.00
2022-09-10T04:19:33.475Z,0.00
2022-09-10T04:20:33.426Z,0.00
2022-09-10T04:21:33.358Z,0.00
2022-09-10T04:22:35.583Z,1.00
2022-09-10T04:23:33.180Z,1.00
2022-09-10T04:24:33.123Z,1.00
2022-09-10T04:25:33.027Z,1.00
2022-09-10T04:26:32.968Z,1.00
2022-09-10T04:27:32.975Z,2.00
2022-09-10T04:28:32.842Z,2.00
2022-09-10T04:29:32.785Z,1.00
2022-09-10T04:30:32.742Z,1.00
2022-09-10T04:31:32.672Z,2.00
2022-09-10T04:32:32.574Z,1.00
2022-09-10T04:33:32.514Z,6.00
2022-09-10T04:34:32.467Z,4.00
2022-09-10T04:35:32.393Z,5.00
2022-09-10T04:36:32.308Z,5.00
2022-09-10T04:37:32.241Z,5.00
2022-09-10T04:38:32.199Z,9.00
2022-09-10T04:39:32.227Z,13.00
2022-09-10T04:40:32.076Z,14.00
2022-09-10T04:41:31.989Z,15.00
2022-09-10T04:42:31.946Z,18.00
2022-09-10T04:43:31.856Z,18.00
2022-09-10T04:44:31.787Z,28.00
2022-09-10T04:45:31.766Z,30.00
2022-09-10T04:46:33.933Z,35.00
2022-09-10T04:47:31.614Z,41.00
2022-09-10T04:48:31.555Z,39.00
2022-09-10T04:49:31.457Z,36.00
2022-09-10T04:50:31.412Z,47.00
2022-09-10T04:51:31.372Z,56.00
2022-09-10T04:52:31.314Z,58.00
2022-09-10T04:53:31.218Z,62.00
2022-09-10T04:54:31.148Z,58.00
2022-09-10T04:55:31.113Z,62.00
2022-09-10T04:56:31.006Z,64.00
2022-09-10T04:57:30.953Z,79.00
2022-09-10T04:58:33.281Z,96.00
2022-09-10T04:59:30.830Z,98.00
2022-09-10T05:00:30.761Z,101.00
2022-09-10T05:01:30.706Z,122.00
2022-09-10T05:02:30.685Z,123.00
2022-09-10T05:03:30.544Z,120.00
2022-09-10T05:04:31.259Z,124.00
2022-09-10T05:05:30.435Z,131.00
2022-09-10T05:06:30.355Z,132.00
2022-09-10T05:07:30.346Z,143.00
2022-09-10T05:08:30.235Z,148.00
2022-09-10T05:09:30.153Z,165.00
2022-09-10T05:10:30.105Z,188.00
2022-09-10T05:11:30.041Z,189.00
2022-09-10T05:12:29.988Z,202.00
2022-09-10T05:13:29.912Z,207.00
2022-09-10T05:14:29.845Z,253.00
2022-09-10T05:15:29.772Z,269.00
2022-09-10T05:16:31.014Z,256.00
2022-09-10T05:17:29.648Z,257.00
2022-09-10T05:18:29.615Z,265.00
2022-09-10T05:19:30.051Z,263.00
2022-09-10T05:20:29.454Z,268.00
2022-09-10T05:21:29.393Z,254.00
2022-09-10T05:22:36.023Z,288.00
2022-09-10T05:23:29.293Z,399.00
2022-09-10T05:24:29.189Z,530.00
2022-09-10T05:25:29.133Z,550.00
2022-09-10T05:26:29.059Z,507.00
2022-09-10T05:27:29.008Z,480.00
2022-09-10T05:28:28.954Z,467.00
2022-09-10T05:29:29.547Z,430.00
2022-09-10T05:30:28.822Z,398.00
2022-09-10T05:31:28.788Z,422.00
2022-09-10T05:32:28.689Z,408.00
2022-09-10T05:33:28.600Z,416.00
2022-09-10T05:34:28.548Z,417.00
2022-09-10T05:35:28.487Z,408.00
2022-09-10T05:36:28.422Z,405.00
2022-09-10T05:37:28.337Z,446.00
2022-09-10T05:38:28.273Z,500.00
2022-09-10T05:39:28.221Z,509.00
2022-09-10T05:40:28.150Z,496.00
2022-09-10T05:41:28.083Z,489.00
2022-09-10T05:42:28.002Z,475.00
2022-09-10T05:43:27.968Z,441.00
2022-09-10T05:44:27.868Z,381.00
2022-09-10T05:45:27.885Z,324.00
2022-09-10T05:46:28.973Z,316.00
2022-09-10T05:47:27.690Z,321.00
2022-09-10T05:48:27.623Z,334.00
2022-09-10T05:49:27.563Z,339.00
2022-09-10T05:50:27.488Z,358.00
2022-09-10T05:51:27.432Z,321.00
2022-09-10T05:52:27.381Z,358.00
2022-09-10T05:53:27.300Z,265.00
2022-09-10T05:54:27.231Z,373.00
2022-09-10T05:55:27.180Z,395.00
2022-09-10T05:56:27.088Z,415.00
2022-09-10T05:57:27.039Z,381.00
2022-09-10T05:58:28.547Z,316.00
2022-09-10T05:59:26.906Z,258.00
2022-09-10T06:00:26.879Z,246.00
2022-09-10T06:01:26.758Z,271.00
2022-09-10T06:02:26.883Z,289.00
2022-09-10T06:03:26.638Z,255.00
2022-09-10T06:04:26.607Z,273.00
2022-09-10T06:05:26.498Z,360.00
2022-09-10T06:06:26.456Z,369.00
2022-09-10T06:07:26.413Z,352.00
2022-09-10T06:08:26.317Z,315.00
2022-09-10T06:09:26.253Z,325.00
2022-09-10T06:10:26.976Z,355.00
2022-09-10T06:11:26.123Z,384.00
2022-09-10T06:12:26.045Z,405.00
2022-09-10T06:13:26.004Z,479.00
2022-09-10T06:14:25.927Z,521.00
2022-09-10T06:15:25.844Z,520.00
2022-09-10T06:16:25.871Z,413.00
2022-09-10T06:17:25.722Z,467.00
2022-09-10T06:18:25.665Z,487.00
2022-09-10T06:19:25.586Z,442.00
2022-09-10T06:20:25.623Z,466.00
2022-09-10T06:21:28.330Z,425.00
2022-09-10T06:22:26.203Z,399.00
2022-09-10T06:23:25.346Z,469.00
2022-09-10T06:24:25.261Z,576.00
2022-09-10T06:25:25.193Z,513.00
2022-09-10T06:26:25.174Z,656.00
2022-09-10T06:27:25.088Z,646.00
2022-09-10T06:28:25.020Z,611.00
2022-09-10T06:29:24.976Z,612.00
2022-09-10T06:30:24.975Z,609.00
2022-09-10T06:31:24.828Z,609.00
2022-09-10T06:32:24.750Z,673.00
2022-09-10T06:33:24.714Z,674.00
2022-09-10T06:34:26.166Z,680.00
2022-09-10T06:35:24.572Z,638.00
2022-09-10T06:36:24.492Z,577.00
2022-09-10T06:37:24.446Z,489.00
2022-09-10T06:38:24.348Z,415.00
2022-09-10T06:39:24.293Z,364.00
2022-09-10T06:40:24.249Z,274.00
2022-09-10T06:41:24.176Z,299.00
2022-09-10T06:42:24.122Z,289.00
2022-09-10T06:43:24.022Z,321.00
2022-09-10T06:44:23.976Z,330.00
2022-09-10T06:45:23.907Z,349.00
2022-09-10T06:48:06.820Z,483.00
2022-09-10T06:48:39.113Z,488.00
2022-09-10T06:49:23.650Z,602.00
2022-09-10T06:50:23.599Z,624.00
2022-09-10T06:51:23.530Z,596.00
2022-09-10T06:52:25.003Z,778.00
2022-09-10T06:53:23.406Z,861.00
2022-09-10T06:54:23.326Z,751.00
2022-09-10T06:55:23.251Z,703.00
2022-09-10T06:56:23.189Z,679.00
2022-09-10T06:57:23.138Z,555.00
2022-09-10T06:58:23.103Z,665.00
2022-09-10T06:59:22.990Z,722.00
2022-09-10T07:00:22.925Z,740.00
2022-09-10T07:01:22.935Z,714.00
2022-09-10T07:02:22.861Z,561.00
2022-09-10T07:03:22.736Z,461.00
2022-09-10T07:04:22.695Z,350.00
2022-09-10T07:05:22.621Z,239.00
2022-09-10T07:06:22.547Z,227.00
2022-09-10T07:07:22.484Z,268.00
2022-09-10T07:08:22.397Z,173.00
2022-09-10T07:09:22.345Z,447.00
2022-09-10T07:10:24.367Z,254.00
2022-09-10T07:11:22.204Z,709.00
2022-09-10T07:12:22.169Z,923.00
2022-09-10T07:13:22.095Z,713.00
2022-09-10T07:14:22.000Z,674.00
2022-09-10T07:15:21.956Z,644.00
2022-09-10T07:16:22.665Z,982.00
2022-09-10T07:17:21.820Z,1214.00
2022-09-10T07:18:21.755Z,1284.00
2022-09-10T07:19:21.704Z,1220.00
2022-09-10T07:20:21.626Z,1213.00
2022-09-10T07:21:21.557Z,1023.00
2022-09-10T07:22:21.503Z,879.00
2022-09-10T07:23:21.434Z,738.00
2022-09-10T07:24:21.362Z,955.00
2022-09-10T07:25:21.316Z,862.00
2022-09-10T07:26:21.277Z,1009.00
2022-09-10T07:27:21.166Z,1298.00
2022-09-10T07:28:22.665Z,1094.00
2022-09-10T07:29:21.077Z,1071.00
2022-09-10T07:30:20.991Z,1162.00
2022-09-10T07:31:20.931Z,925.00
2022-09-10T07:32:20.822Z,862.00
2022-09-10T07:33:20.821Z,1047.00
2022-09-10T07:34:20.719Z,861.00
2022-09-10T07:35:20.654Z,1151.00
2022-09-10T07:36:20.575Z,1000.00
2022-09-10T07:37:20.520Z,1011.00
2022-09-10T07:38:20.457Z,978.00
2022-09-10T07:39:24.916Z,1100.00
2022-09-10T07:40:21.153Z,1352.00
2022-09-10T07:41:20.244Z,931.00
2022-09-10T07:42:20.191Z,1103.00
2022-09-10T07:43:20.135Z,671.00
2022-09-10T07:44:20.045Z,1119.00
2022-09-10T07:45:19.979Z,960.00
2022-09-10T07:46:19.990Z,606.00
2022-09-10T07:47:19.851Z,1021.00
2022-09-10T07:48:19.799Z,711.00
2022-09-10T07:49:19.714Z,725.00
2022-09-10T07:50:19.663Z,876.00
2022-09-10T07:51:19.600Z,1152.00
2022-09-10T07:52:19.539Z,913.00
2022-09-10T07:53:19.498Z,964.00
2022-09-10T07:54:19.394Z,883.00
2022-09-10T07:55:19.347Z,714.00
2022-09-10T07:56:19.310Z,523.00
2022-09-10T07:57:19.211Z,612.00
2022-09-10T07:58:20.693Z,885.00
2022-09-10T07:59:19.068Z,743.00
2022-09-10T08:00:19.018Z,603.00
2022-09-10T08:01:18.979Z,463.00
2022-09-10T08:02:18.915Z,515.00
2022-09-10T08:03:18.824Z,579.00
2022-09-10T08:04:18.762Z,961.00
2022-09-10T08:05:18.683Z,767.00
2022-09-10T08:06:18.633Z,665.00
2022-09-10T08:07:18.591Z,820.00
2022-09-10T08:08:18.492Z,796.00
2022-09-10T08:09:18.432Z,614.00
2022-09-10T08:10:18.383Z,718.00
2022-09-10T08:11:18.286Z,953.00
2022-09-10T08:12:18.229Z,955.00
2022-09-10T08:13:18.172Z,632.00
2022-09-10T08:14:18.092Z,913.00
2022-09-10T08:15:18.035Z,1149.00
2022-09-10T08:16:19.150Z,835.00
2022-09-10T08:17:17.897Z,909.00
2022-09-10T08:18:17.826Z,1052.00
2022-09-10T08:19:17.785Z,969.00
2022-09-10T08:20:17.737Z,941.00
2022-09-10T08:21:18.474Z,1179.00
2022-09-10T08:22:18.357Z,1411.00
2022-09-10T08:23:17.517Z,1016.00
2022-09-10T08:24:18.039Z,975.00
2022-09-10T08:25:17.442Z,1189.00
2022-09-10T08:26:17.308Z,944.00
2022-09-10T08:27:17.259Z,1423.00
2022-09-10T08:28:20.455Z,1990.00
2022-09-10T08:29:17.131Z,1678.00
2022-09-10T08:30:17.134Z,1352.00
2022-09-10T08:31:17.033Z,1475.00
2022-09-10T08:32:16.957Z,1169.00
2022-09-10T08:33:16.869Z,1008.00
2022-09-10T08:34:17.593Z,1127.00
2022-09-10T08:35:16.758Z,1166.00
2022-09-10T08:36:16.675Z,1029.00
2022-09-10T08:37:16.627Z,942.00
2022-09-10T08:38:16.549Z,904.00
2022-09-10T08:39:16.477Z,896.00
2022-09-10T08:40:17.622Z,857.00
2022-09-10T08:41:16.327Z,716.00
2022-09-10T08:42:16.279Z,708.00
2022-09-10T08:43:16.260Z,815.00
2022-09-10T08:44:16.198Z,790.00
2022-09-10T08:45:16.077Z,606.00
2022-09-10T08:46:16.038Z,639.00
2022-09-10T08:47:15.959Z,755.00
2022-09-10T08:48:15.879Z,639.00
2022-09-10T08:49:15.854Z,526.00
2022-09-10T08:50:15.782Z,611.00
2022-09-10T08:51:15.699Z,607.00
2022-09-10T08:52:15.632Z,496.00
2022-09-10T08:53:15.585Z,442.00
2022-09-10T08:54:15.492Z,415.00
2022-09-10T08:55:15.472Z,423.00
2022-09-10T08:56:15.354Z,469.00
2022-09-10T08:57:15.308Z,418.00
2022-09-10T08:58:15.244Z,320.00
2022-09-10T08:59:15.181Z,296.00
2022-09-10T09:00:15.156Z,261.00
2022-09-10T09:01:16.065Z,215.00
2022-09-10T09:02:31.588Z,299.00
2022-09-10T09:03:15.009Z,400.00
2022-09-10T09:04:16.056Z,367.00
2022-09-10T09:05:14.815Z,689.00
2022-09-10T09:06:14.705Z,1167.00
2022-09-10T09:07:14.641Z,893.00
2022-09-10T09:08:14.591Z,976.00
2022-09-10T09:09:15.839Z,950.00
2022-09-10T09:10:14.495Z,892.00
2022-09-10T09:11:14.398Z,917.00
2022-09-10T09:12:14.343Z,720.00
2022-09-10T09:13:14.260Z,604.00
2022-09-10T09:14:14.183Z,744.00
2022-09-10T09:15:14.117Z,937.00
2022-09-10T09:16:14.118Z,1362.00
2022-09-10T09:17:14.015Z,2021.00
2022-09-10T09:18:13.921Z,1868.00
2022-09-10T09:19:13.857Z,1796.00
2022-09-10T09:20:13.921Z,1589.00
2022-09-10T09:21:13.747Z,1699.00
2022-09-10T09:22:13.960Z,1817.00
2022-09-10T09:23:13.616Z,1376.00
2022-09-10T09:24:14.145Z,1683.00
2022-09-10T09:25:13.497Z,1965.00
2022-09-10T09:26:13.416Z,2208.00
2022-09-10T09:27:13.358Z,2019.00
2022-09-10T09:28:13.309Z,2035.00
2022-09-10T09:29:13.221Z,2107.00
2022-09-10T09:30:13.148Z,2167.00
2022-09-10T09:31:13.122Z,2273.00
2022-09-10T09:32:13.035Z,2351.00
2022-09-10T09:33:12.952Z,2344.00
2022-09-10T09:34:12.922Z,2355.00
2022-09-10T09:35:12.825Z,2422.00
2022-09-10T09:36:12.805Z,2715.00
2022-09-10T09:37:13.525Z,2880.00
2022-09-10T09:38:12.628Z,3107.00
2022-09-10T09:39:12.576Z,2867.00
2022-09-10T09:40:12.688Z,5358.00
2022-09-10T09:41:12.439Z,4495.00
2022-09-10T09:42:12.405Z,5883.00
2022-09-10T09:43:13.036Z,6440.00
2022-09-10T09:44:12.260Z,7021.00
2022-09-10T09:45:12.197Z,9599.00
2022-09-10T09:46:12.230Z,8435.00
2022-09-10T09:47:12.056Z,7666.00
2022-09-10T09:48:12.533Z,6055.00
2022-09-10T09:49:11.965Z,4479.00
2022-09-10T09:50:11.991Z,6033.00
2022-09-10T09:51:11.809Z,7251.00
2022-09-10T09:52:14.038Z,5618.00
2022-09-10T09:53:11.673Z,8481.00
2022-09-10T09:55:14.827Z,5412.00
2022-09-10T09:56:11.494Z,8112.00
2022-09-10T09:57:11.415Z,5121.00
2022-09-10T09:58:11.372Z,3914.00
2022-09-10T09:59:14.939Z,3072.00
2022-09-10T10:00:11.230Z,2472.00
2022-09-10T10:01:11.155Z,2278.00
2022-09-10T10:02:11.110Z,1984.00
2022-09-10T10:03:11.028Z,1856.00
2022-09-10T10:04:10.982Z,2215.00
2022-09-10T10:05:10.917Z,2534.00
2022-09-10T10:06:10.838Z,2374.00
2022-09-10T10:07:10.770Z,2442.00
2022-09-10T10:08:10.694Z,2507.00
2022-09-10T10:09:10.652Z,2513.00
2022-09-10T10:10:11.377Z,2461.00
2022-09-10T10:11:10.524Z,2505.00
2022-09-10T10:12:10.429Z,2537.00
2022-09-10T10:13:10.379Z,2432.00
2022-09-10T10:14:10.314Z,2147.00
2022-09-10T10:15:10.232Z,2255.00
2022-09-10T10:16:11.039Z,2348.00
2022-09-10T10:17:10.131Z,2580.00
2022-09-10T10:18:10.055Z,3040.00
2022-09-10T10:19:09.984Z,3106.00
2022-09-10T10:20:09.986Z,4237.00
2022-09-10T10:21:09.845Z,3974.00
2022-09-10T10:22:09.804Z,3687.00
2022-09-10T10:23:09.734Z,2616.00
2022-09-10T10:24:09.669Z,3129.00
2022-09-10T10:25:09.588Z,4908.00
2022-09-10T10:26:09.562Z,3675.00
2022-09-10T10:27:09.487Z,4222.00
2022-09-10T10:28:10.784Z,3767.00
2022-09-10T10:29:09.344Z,3613.00
2022-09-10T10:30:09.355Z,3281.00
2022-09-10T10:31:09.221Z,2859.00
2022-09-10T10:32:09.149Z,4679.00
2022-09-10T10:33:09.087Z,3358.00
2022-09-10T10:34:09.799Z,4176.00
2022-09-10T10:35:08.937Z,3504.00
2022-09-10T10:36:08.875Z,3121.00
2022-09-10T10:37:08.837Z,2748.00
2022-09-10T10:38:08.748Z,2421.00
2022-09-10T10:39:08.697Z,2144.00
2022-09-10T10:40:09.510Z,1893.00
2022-09-10T10:41:08.566Z,1083.00
2022-09-10T10:42:08.501Z,3269.00
2022-09-10T10:43:08.452Z,1621.00
2022-09-10T10:44:08.356Z,3835.00
2022-09-10T10:45:08.311Z,3951.00
2022-09-10T10:46:11.778Z,3621.00
2022-09-10T10:47:08.215Z,3697.00
2022-09-10T10:48:08.117Z,3820.00
2022-09-10T10:49:08.059Z,3482.00
2022-09-10T10:50:08.059Z,3236.00
2022-09-10T10:51:07.955Z,2935.00
2022-09-10T10:52:07.891Z,2484.00
2022-09-10T10:53:08.533Z,3056.00
2022-09-10T10:54:07.725Z,4165.00
2022-09-10T10:55:07.673Z,3606.00
2022-09-10T10:56:07.597Z,5115.00
2022-09-10T10:57:07.528Z,3391.00
2022-09-10T10:58:07.500Z,4231.00
2022-09-10T10:59:07.406Z,4678.00
2022-09-10T11:00:07.350Z,4761.00
2022-09-10T11:01:07.262Z,4427.00
2022-09-10T11:02:07.362Z,3796.00
2022-09-10T11:03:07.165Z,3367.00
2022-09-10T11:04:07.871Z,4442.00
2022-09-10T11:05:07.021Z,2738.00
2022-09-10T11:06:06.955Z,5557.00
2022-09-10T11:07:06.901Z,5087.00
2022-09-10T11:08:06.858Z,5603.00
2022-09-10T11:09:06.751Z,3958.00
2022-09-10T11:10:06.711Z,4845.00
2022-09-10T11:11:06.640Z,3840.00
2022-09-10T11:12:06.594Z,2961.00
2022-09-10T11:13:06.519Z,3792.00
2022-09-10T11:14:06.448Z,4992.00
2022-09-10T11:15:06.375Z,5410.00
2022-09-10T11:16:11.895Z,5363.00
2022-09-10T11:17:06.235Z,4438.00
2022-09-10T11:18:06.214Z,4671.00
2022-09-10T11:19:06.129Z,4099.00
2022-09-10T11:20:27.371Z,3600.00
2022-09-10T11:21:05.994Z,3155.00
2022-09-10T11:22:05.978Z,3051.00
2022-09-10T11:23:05.877Z,2619.00
2022-09-10T11:24:05.824Z,2425.00
2022-09-10T11:25:05.767Z,2056.00
2022-09-10T11:26:05.655Z,2012.00
2022-09-10T11:27:05.606Z,2211.00
2022-09-10T11:28:05.569Z,1803.00
2022-09-10T11:29:05.475Z,3157.00
2022-09-10T11:30:05.399Z,3815.00
2022-09-10T11:31:05.389Z,3757.00
2022-09-10T11:32:05.297Z,3106.00
2022-09-10T11:33:05.207Z,2639.00
2022-09-10T11:34:05.165Z,2417.00
2022-09-10T11:35:05.097Z,1985.00
2022-09-10T11:36:05.013Z,2059.00
2022-09-10T11:37:04.969Z,2359.00
2022-09-10T11:38:04.926Z,2685.00
2022-09-10T11:39:04.895Z,2848.00
2022-09-10T11:40:04.996Z,2980.00
2022-09-10T11:41:04.720Z,2894.00
2022-09-10T11:42:05.534Z,3230.00
2022-09-10T11:43:04.605Z,3461.00
2022-09-10T11:44:04.522Z,3258.00
2022-09-10T11:45:04.439Z,3317.00
2022-09-10T11:46:05.638Z,3413.00
2022-09-10T11:47:04.308Z,3259.00
2022-09-10T11:48:04.281Z,3230.00
2022-09-10T11:49:04.215Z,3091.00
2022-09-10T11:50:04.295Z,3298.00
2022-09-10T11:51:04.055Z,3282.00
2022-09-10T11:52:04.035Z,3679.00
2022-09-10T11:53:03.928Z,4122.00
2022-09-10T11:54:03.923Z,4139.00
2022-09-10T11:55:03.797Z,4174.00
2022-09-10T11:56:03.764Z,4768.00
2022-09-10T11:57:03.689Z,4159.00
2022-09-10T11:58:03.629Z,3891.00
2022-09-10T11:59:03.567Z,3048.00
2022-09-10T12:00:04.666Z,4197.00
2022-09-10T12:01:04.035Z,3905.00
2022-09-10T12:02:03.401Z,4095.00
2022-09-10T12:03:04.034Z,3778.00
2022-09-10T12:04:03.263Z,4152.00
2022-09-10T12:05:03.193Z,4239.00
2022-09-10T12:06:03.109Z,3826.00
2022-09-10T12:07:03.050Z,3445.00
2022-09-10T12:08:02.994Z,2775.00
2022-09-10T12:09:02.985Z,2869.00
2022-09-10T12:10:02.920Z,1761.00
2022-09-10T12:11:02.795Z,2897.00
2022-09-10T12:12:02.701Z,4787.00
2022-09-10T12:13:02.659Z,3033.00
2022-09-10T12:14:02.597Z,4091.00
2022-09-10T12:15:02.517Z,4311.00
2022-09-10T12:16:02.764Z,3799.00
2022-09-10T12:17:02.398Z,3848.00
2022-09-10T12:18:02.341Z,3345.00
2022-09-10T12:19:02.263Z,3853.00
2022-09-10T12:20:02.281Z,3151.00
2022-09-10T12:21:02.130Z,2700.00
2022-09-10T12:22:02.124Z,2246.00
2022-09-10T12:23:02.046Z,2536.00
2022-09-10T12:24:01.949Z,2542.00
2022-09-10T12:25:01.874Z,2165.00
2022-09-10T12:26:01.811Z,2118.00
2022-09-10T12:27:01.795Z,1844.00
2022-09-10T12:28:02.461Z,2135.00
2022-09-10T12:29:01.619Z,2247.00
2022-09-10T12:30:01.570Z,1998.00
2022-09-10T12:31:01.577Z,1758.00
2022-09-10T12:32:01.441Z,1635.00
2022-09-10T12:33:01.407Z,1680.00
2022-09-10T12:34:01.319Z,1757.00
2022-09-10T12:35:01.247Z,1798.00
2022-09-10T12:36:01.181Z,1777.00
2022-09-10T12:37:01.118Z,1606.00
2022-09-10T12:38:01.036Z,1568.00
2022-09-10T12:39:00.992Z,1937.00
2022-09-10T12:40:03.439Z,1913.00
2022-09-10T12:41:00.867Z,1826.00